LFTW/FNI METAR and TAF weather

Enter ICAO airport designator
Station Type Date Time Source
LFTW METAR 2021/07/24 21:00 UTC NOAA

LFTW 242100Z AUTO 18002KT 9999 SCT049 23/21 Q1010


Station Type Date Time Source
LFTW Decoded METAR 2021/07/24 21:00 UTC NOAA

Nimes / Garons, France (LFTW) 43-45N 004-25E 96M
Jul 24, 2021 - 05:00 PM EDT / 2021.07.24 2100 UTC
Wind: from the S (180 degrees) at 2 MPH (2 KT):0
Visibility: greater than 7 mile(s):0
Sky conditions: partly cloudy
Temperature: 73 F (23 C)
Dew Point: 69 F (21 C)
Relative Humidity: 88%
Pressure (altimeter): 29.83 in. Hg (1010 hPa)
ob: LFTW 242100Z AUTO 18002KT 9999 SCT049 23/21 Q1010
cycle: 21

Station Type Date Time Source
LFTW TAF 2021/07/24 18:06 UTC NOAA

TAF TAF LFTW 241858Z 2418/2515 CNL

Example: see airport list